sensor_id;sensor_type;location;lat;lon;timestamp;pressure;altitude;pressure_sealevel;temperature
69785;BMP280;14177;51.520;6.764;2024-02-15T00:00:00;101511.38;;;12.99
69785;BMP280;14177;51.520;6.764;2024-02-15T00:02:29;101513.97;;;12.99
69785;BMP280;14177;51.520;6.764;2024-02-15T00:04:57;101517.38;;;13.01
69785;BMP280;14177;51.520;6.764;2024-02-15T00:07:24;101536.56;;;12.98
69785;BMP280;14177;51.520;6.764;2024-02-15T00:09:51;101533.97;;;12.98
69785;BMP280;14177;51.520;6.764;2024-02-15T00:12:20;101521.78;;;12.99
69785;BMP280;14177;51.520;6.764;2024-02-15T00:14:47;101530.44;;;13.01
69785;BMP280;14177;51.520;6.764;2024-02-15T00:17:15;101518.28;;;13.00
69785;BMP280;14177;51.520;6.764;2024-02-15T00:19:42;101525.22;;;13.01
69785;BMP280;14177;51.520;6.764;2024-02-15T00:22:09;101528.63;;;13.03
69785;BMP280;14177;51.520;6.764;2024-02-15T00:24:37;101530.34;;;13.04
69785;BMP280;14177;51.520;6.764;2024-02-15T00:27:05;101516.41;;;13.05
69785;BMP280;14177;51.520;6.764;2024-02-15T00:29:32;101518.28;;;13.00
69785;BMP280;14177;51.520;6.764;2024-02-15T00:32:02;101526.06;;;13.01
69785;BMP280;14177;51.520;6.764;2024-02-15T00:34:32;101526.16;;;12.98
69785;BMP280;14177;51.520;6.764;2024-02-15T00:36:59;101516.69;;;12.94
69785;BMP280;14177;51.520;6.764;2024-02-15T00:39:26;101530.59;;;12.95
69785;BMP280;14177;51.520;6.764;2024-02-15T00:41:53;101525.34;;;12.96
69785;BMP280;14177;51.520;6.764;2024-02-15T00:44:23;101523.59;;;12.97
69785;BMP280;14177;51.520;6.764;2024-02-15T00:46:50;101523.63;;;12.95
69785;BMP280;14177;51.520;6.764;2024-02-15T00:49:17;101522.78;;;12.95
69785;BMP280;14177;51.520;6.764;2024-02-15T00:51:47;101528.81;;;12.97
69785;BMP280;14177;51.520;6.764;2024-02-15T00:54:15;101519.31;;;12.94
69785;BMP280;14177;51.520;6.764;2024-02-15T00:56:43;101526.31;;;12.92
69785;BMP280;14177;51.520;6.764;2024-02-15T00:59:10;101530.63;;;12.93
69785;BMP280;14177;51.520;6.764;2024-02-15T01:01:37;101521.97;;;12.93
69785;BMP280;14177;51.520;6.764;2024-02-15T01:04:05;101529.66;;;12.97
69785;BMP280;14177;51.520;6.764;2024-02-15T01:06:32;101515.72;;;12.98
69785;BMP280;14177;51.520;6.764;2024-02-15T01:09:00;101515.69;;;13.00
69785;BMP280;14177;51.520;6.764;2024-02-15T01:11:31;101514.00;;;12.97
69785;BMP280;14177;51.520;6.764;2024-02-15T01:14:03;101512.25;;;12.98
69785;BMP280;14177;51.520;6.764;2024-02-15T01:16:30;101498.34;;;12.97
69785;BMP280;14177;51.520;6.764;2024-02-15T01:18:57;101505.25;;;13.00
69785;BMP280;14177;51.520;6.764;2024-02-15T01:21:25;101500.13;;;12.97
69785;BMP280;14177;51.520;6.764;2024-02-15T01:23:52;101500.13;;;12.97
69785;BMP280;14177;51.520;6.764;2024-02-15T01:26:21;101496.72;;;12.95
69785;BMP280;14177;51.520;6.764;2024-02-15T01:28:48;101492.47;;;12.91
69785;BMP280;14177;51.520;6.764;2024-02-15T01:31:15;101499.53;;;12.86
69785;BMP280;14177;51.520;6.764;2024-02-15T01:33:44;101506.63;;;12.81
69785;BMP280;14177;51.520;6.764;2024-02-15T01:36:18;101501.44;;;12.81
69785;BMP280;14177;51.520;6.764;2024-02-15T01:38:45;101504.94;;;12.80
69785;BMP280;14177;51.520;6.764;2024-02-15T01:41:13;101495.44;;;12.77
69785;BMP280;14177;51.520;6.764;2024-02-15T01:43:44;101506.72;;;12.78
69785;BMP280;14177;51.520;6.764;2024-02-15T01:46:15;101501.59;;;12.75
69785;BMP280;14177;51.520;6.764;2024-02-15T01:48:43;101510.25;;;12.75
69785;BMP280;14177;51.520;6.764;2024-02-15T01:51:12;101508.59;;;12.73
69785;BMP280;14177;51.520;6.764;2024-02-15T01:53:43;101501.69;;;12.72
69785;BMP280;14177;51.520;6.764;2024-02-15T01:56:13;101502.56;;;12.72
69785;BMP280;14177;51.520;6.764;2024-02-15T01:58:42;101500.78;;;12.73
69785;BMP280;14177;51.520;6.764;2024-02-15T02:01:10;101504.16;;;12.76
69785;BMP280;14177;51.520;6.764;2024-02-15T02:03:39;101494.69;;;12.74
69785;BMP280;14177;51.520;6.764;2024-02-15T02:06:07;101499.06;;;12.73
69785;BMP280;14177;51.520;6.764;2024-02-15T02:08:35;101486.03;;;12.72
69785;BMP280;14177;51.520;6.764;2024-02-15T02:11:02;101488.63;;;12.73
69785;BMP280;14177;51.520;6.764;2024-02-15T02:13:30;101481.63;;;12.74
69785;BMP280;14177;51.520;6.764;2024-02-15T02:15:58;101486.00;;;12.73
69785;BMP280;14177;51.520;6.764;2024-02-15T02:18:27;101479.09;;;12.72
69785;BMP280;14177;51.520;6.764;2024-02-15T02:20:54;101479.13;;;12.71
69785;BMP280;14177;51.520;6.764;2024-02-15T02:23:26;101477.38;;;12.71
69785;BMP280;14177;51.520;6.764;2024-02-15T02:25:55;101478.97;;;12.75
69785;BMP280;14177;51.520;6.764;2024-02-15T02:28:22;101465.91;;;12.77
69785;BMP280;14177;51.520;6.764;2024-02-15T02:30:50;101468.47;;;12.78
69785;BMP280;14177;51.520;6.764;2024-02-15T02:33:17;101465.00;;;12.78
69785;BMP280;14177;51.520;6.764;2024-02-15T02:35:47;101465.00;;;12.78
69785;BMP280;14177;51.520;6.764;2024-02-15T02:38:16;101457.19;;;12.78
69785;BMP280;14177;51.520;6.764;2024-02-15T02:40:43;101461.50;;;12.79
69785;BMP280;14177;51.520;6.764;2024-02-15T02:43:10;101458.94;;;12.77
69785;BMP280;14177;51.520;6.764;2024-02-15T02:45:37;101456.28;;;12.79
69785;BMP280;14177;51.520;6.764;2024-02-15T02:48:05;101454.56;;;12.78
69785;BMP280;14177;51.520;6.764;2024-02-15T02:50:32;101447.59;;;12.78
69785;BMP280;14177;51.520;6.764;2024-02-15T02:53:00;101456.28;;;12.79
69785;BMP280;14177;51.520;6.764;2024-02-15T02:55:27;101454.50;;;12.81
69785;BMP280;14177;51.520;6.764;2024-02-15T02:57:55;101452.69;;;12.83
69785;BMP280;14177;51.520;6.764;2024-02-15T03:00:22;101443.00;;;12.86
69785;BMP280;14177;51.520;6.764;2024-02-15T03:02:50;101440.50;;;12.83
69785;BMP280;14177;51.520;6.764;2024-02-15T03:05:17;101432.66;;;12.85
69785;BMP280;14177;51.520;6.764;2024-02-15T03:07:48;101428.31;;;12.84
69785;BMP280;14177;51.520;6.764;2024-02-15T03:10:19;101427.59;;;12.79
69785;BMP280;14177;51.520;6.764;2024-02-15T03:12:46;101435.38;;;12.80
69785;BMP280;14177;51.520;6.764;2024-02-15T03:15:16;101430.97;;;12.82
69785;BMP280;14177;51.520;6.764;2024-02-15T03:17:47;101424.00;;;12.83
69785;BMP280;14177;51.520;6.764;2024-02-15T03:20:15;101427.44;;;12.85
69785;BMP280;14177;51.520;6.764;2024-02-15T03:22:57;101422.97;;;12.88
69785;BMP280;14177;51.520;6.764;2024-02-15T03:25:27;101426.44;;;12.89
69785;BMP280;14177;51.520;6.764;2024-02-15T03:28:00;101426.44;;;12.89
69785;BMP280;14177;51.520;6.764;2024-02-15T03:30:32;101423.84;;;12.87
69785;BMP280;14177;51.520;6.764;2024-02-15T03:33:01;101423.91;;;12.86
69785;BMP280;14177;51.520;6.764;2024-02-15T03:35:33;101431.78;;;12.84
69785;BMP280;14177;51.520;6.764;2024-02-15T03:38:00;101424.00;;;12.83
69785;BMP280;14177;51.520;6.764;2024-02-15T03:40:28;101418.00;;;12.81
69785;BMP280;14177;51.520;6.764;2024-02-15T03:42:57;101421.50;;;12.80
69785;BMP280;14177;51.520;6.764;2024-02-15T03:45:25;101427.59;;;12.79
69785;BMP280;14177;51.520;6.764;2024-02-15T03:47:54;101438.94;;;12.78
69785;BMP280;14177;51.520;6.764;2024-02-15T03:50:23;101429.41;;;12.77
69785;BMP280;14177;51.520;6.764;2024-02-15T03:52:50;101422.50;;;12.76
69785;BMP280;14177;51.520;6.764;2024-02-15T03:55:18;101423.38;;;12.75
69785;BMP280;14177;51.520;6.764;2024-02-15T03:57:45;101421.69;;;12.74
69785;BMP280;14177;51.520;6.764;2024-02-15T04:00:14;101418.25;;;12.72
69785;BMP280;14177;51.520;6.764;2024-02-15T04:02:42;101421.75;;;12.72
69785;BMP280;14177;51.520;6.764;2024-02-15T04:05:10;101409.44;;;12.76
69785;BMP280;14177;51.520;6.764;2024-02-15T04:07:39;101413.75;;;12.77
69785;BMP280;14177;51.520;6.764;2024-02-15T04:10:07;101420.72;;;12.76
69785;BMP280;14177;51.520;6.764;2024-02-15T04:12:36;101410.28;;;12.76
69785;BMP280;14177;51.520;6.764;2024-02-15T04:15:05;101422.41;;;12.77
69785;BMP280;14177;51.520;6.764;2024-02-15T04:17:41;101421.69;;;12.74
69785;BMP280;14177;51.520;6.764;2024-02-15T04:20:10;101419.06;;;12.74
69785;BMP280;14177;51.520;6.764;2024-02-15T04:22:39;101417.41;;;12.71
69785;BMP280;14177;51.520;6.764;2024-02-15T04:25:10;101416.56;;;12.71
69785;BMP280;14177;51.520;6.764;2024-02-15T04:27:38;101413.03;;;12.72
69785;BMP280;14177;51.520;6.764;2024-02-15T04:30:06;101417.38;;;12.73
69785;BMP280;14177;51.520;6.764;2024-02-15T04:32:35;101421.69;;;12.74
69785;BMP280;14177;51.520;6.764;2024-02-15T04:35:04;101416.41;;;12.75
69785;BMP280;14177;51.520;6.764;2024-02-15T04:37:33;101419.81;;;12.77
69785;BMP280;14177;51.520;6.764;2024-02-15T04:40:01;101413.75;;;12.77
69785;BMP280;14177;51.520;6.764;2024-02-15T04:42:36;101426.72;;;12.80
69785;BMP280;14177;51.520;6.764;2024-02-15T04:45:12;101412.78;;;12.81
69785;BMP280;14177;51.520;6.764;2024-02-15T04:47:42;101412.78;;;12.81
69785;BMP280;14177;51.520;6.764;2024-02-15T04:50:10;101410.06;;;12.84
69785;BMP280;14177;51.520;6.764;2024-02-15T04:52:37;101410.00;;;12.85
69785;BMP280;14177;51.520;6.764;2024-02-15T04:55:05;101419.50;;;12.88
69785;BMP280;14177;51.520;6.764;2024-02-15T04:57:33;101411.72;;;12.86
69785;BMP280;14177;51.520;6.764;2024-02-15T05:00:02;101406.47;;;12.88
69785;BMP280;14177;51.520;6.764;2024-02-15T05:02:37;101396.06;;;12.86
69785;BMP280;14177;51.520;6.764;2024-02-15T05:05:07;101389.16;;;12.85
69785;BMP280;14177;51.520;6.764;2024-02-15T05:07:35;101396.13;;;12.85
69785;BMP280;14177;51.520;6.764;2024-02-15T05:10:07;101389.16;;;12.85
69785;BMP280;14177;51.520;6.764;2024-02-15T05:12:37;101397.03;;;12.84
69785;BMP280;14177;51.520;6.764;2024-02-15T05:15:07;101394.47;;;12.82
69785;BMP280;14177;51.520;6.764;2024-02-15T05:17:40;101399.75;;;12.79
69785;BMP280;14177;51.520;6.764;2024-02-15T05:20:11;101393.72;;;12.79
69785;BMP280;14177;51.520;6.764;2024-02-15T05:22:41;101400.72;;;12.77
69785;BMP280;14177;51.520;6.764;2024-02-15T05:25:17;101395.59;;;12.74
69785;BMP280;14177;51.520;6.764;2024-02-15T05:27:50;101394.84;;;12.70
69785;BMP280;14177;51.520;6.764;2024-02-15T05:30:17;101394.88;;;12.69
69785;BMP280;14177;51.520;6.764;2024-02-15T05:32:45;101400.09;;;12.69
69785;BMP280;14177;51.520;6.764;2024-02-15T05:35:12;101394.06;;;12.67
69785;BMP280;14177;51.520;6.764;2024-02-15T05:37:39;101399.38;;;12.64
69785;BMP280;14177;51.520;6.764;2024-02-15T05:40:07;101402.88;;;12.63
69785;BMP280;14177;51.520;6.764;2024-02-15T05:42:34;101402.88;;;12.63
69785;BMP280;14177;51.520;6.764;2024-02-15T05:47:54;101396.84;;;12.62
69785;BMP280;14177;51.520;6.764;2024-02-15T05:50:22;101401.19;;;12.62
69785;BMP280;14177;51.520;6.764;2024-02-15T05:52:50;101399.47;;;12.61
69785;BMP280;14177;51.520;6.764;2024-02-15T05:55:20;101397.75;;;12.60
69785;BMP280;14177;51.520;6.764;2024-02-15T05:57:47;101412.47;;;12.62
69785;BMP280;14177;51.520;6.764;2024-02-15T06:00:14;101402.03;;;12.62
69785;BMP280;14177;51.520;6.764;2024-02-15T06:02:49;101405.50;;;12.63
69785;BMP280;14177;51.520;6.764;2024-02-15T06:05:18;101395.13;;;12.61
69785;BMP280;14177;51.520;6.764;2024-02-15T06:07:45;101389.84;;;12.63
69785;BMP280;14177;51.520;6.764;2024-02-15T06:10:14;101389.84;;;12.63
69785;BMP280;14177;51.520;6.764;2024-02-15T06:12:41;101390.66;;;12.65
69785;BMP280;14177;51.520;6.764;2024-02-15T06:15:09;101390.66;;;12.65
69785;BMP280;14177;51.520;6.764;2024-02-15T06:17:43;101380.22;;;12.65
69785;BMP280;14177;51.520;6.764;2024-02-15T06:20:15;101379.41;;;12.64
69785;BMP280;14177;51.520;6.764;2024-02-15T06:22:45;101385.44;;;12.65
69785;BMP280;14177;51.520;6.764;2024-02-15T06:25:13;101394.06;;;12.67
69785;BMP280;14177;51.520;6.764;2024-02-15T06:27:42;101393.25;;;12.66
69785;BMP280;14177;51.520;6.764;2024-02-15T06:30:15;101391.47;;;12.67
69785;BMP280;14177;51.520;6.764;2024-02-15T06:33:01;101398.38;;;12.68
69785;BMP280;14177;51.520;6.764;2024-02-15T06:35:47;101401.91;;;12.67
69785;BMP280;14177;51.520;6.764;2024-02-15T06:38:32;101401.09;;;12.65
69785;BMP280;14177;51.520;6.764;2024-02-15T06:41:18;101403.75;;;12.63
69785;BMP280;14177;51.520;6.764;2024-02-15T06:43:48;101395.06;;;12.63
69785;BMP280;14177;51.520;6.764;2024-02-15T06:46:15;101409.06;;;12.60
69785;BMP280;14177;51.520;6.764;2024-02-15T06:48:42;101405.66;;;12.57
69785;BMP280;14177;51.520;6.764;2024-02-15T06:51:14;101404.06;;;12.53
69785;BMP280;14177;51.520;6.764;2024-02-15T06:53:43;101402.34;;;12.52
69785;BMP280;14177;51.520;6.764;2024-02-15T06:56:10;101405.84;;;12.51
69785;BMP280;14177;51.520;6.764;2024-02-15T06:58:38;101402.41;;;12.50
69785;BMP280;14177;51.520;6.764;2024-02-15T07:01:07;101402.41;;;12.50
69785;BMP280;14177;51.520;6.764;2024-02-15T07:03:37;101394.59;;;12.49
69785;BMP280;14177;51.520;6.764;2024-02-15T07:06:06;101395.50;;;12.48
69785;BMP280;14177;51.520;6.764;2024-02-15T07:08:33;101391.19;;;12.47
69785;BMP280;14177;51.520;6.764;2024-02-15T07:11:00;101385.97;;;12.47
69785;BMP280;14177;51.520;6.764;2024-02-15T07:13:28;101369.44;;;12.48
69785;BMP280;14177;51.520;6.764;2024-02-15T07:15:55;101359.94;;;12.47
69785;BMP280;14177;51.520;6.764;2024-02-15T07:18:23;101371.22;;;12.47
69785;BMP280;14177;51.520;6.764;2024-02-15T07:20:55;101363.50;;;12.44
69785;BMP280;14177;51.520;6.764;2024-02-15T07:23:25;101378.31;;;12.42
69785;BMP280;14177;51.520;6.764;2024-02-15T07:25:52;101375.72;;;12.41
69785;BMP280;14177;51.520;6.764;2024-02-15T07:28:21;101382.66;;;12.42
69785;BMP280;14177;51.520;6.764;2024-02-15T07:30:52;101383.53;;;12.42
69785;BMP280;14177;51.520;6.764;2024-02-15T07:33:19;101386.16;;;12.41
69785;BMP280;14177;51.520;6.764;2024-02-15T07:35:48;101382.75;;;12.39
69785;BMP280;14177;51.520;6.764;2024-02-15T07:38:20;101377.66;;;12.36
69785;BMP280;14177;51.520;6.764;2024-02-15T07:40:50;101378.56;;;12.35
69785;BMP280;14177;51.520;6.764;2024-02-15T07:43:17;101380.28;;;12.34
69785;BMP280;14177;51.520;6.764;2024-02-15T07:45:44;101381.16;;;12.35
69785;BMP280;14177;51.520;6.764;2024-02-15T07:48:10;101373.28;;;12.36
69785;BMP280;14177;51.520;6.764;2024-02-15T07:50:38;101383.69;;;12.36
69785;BMP280;14177;51.520;6.764;2024-02-15T07:53:07;101380.19;;;12.37
69785;BMP280;14177;51.520;6.764;2024-02-15T07:55:35;101382.75;;;12.39
69785;BMP280;14177;51.520;6.764;2024-02-15T07:58:02;101380.13;;;12.39
69785;BMP280;14177;51.520;6.764;2024-02-15T08:00:29;101380.13;;;12.39
69785;BMP280;14177;51.520;6.764;2024-02-15T08:02:57;101388.75;;;12.41
69785;BMP280;14177;51.520;6.764;2024-02-15T08:05:27;101388.75;;;12.41
69785;BMP280;14177;51.520;6.764;2024-02-15T08:07:54;101385.22;;;12.43
69785;BMP280;14177;51.520;6.764;2024-02-15T08:10:24;101392.09;;;12.46
69785;BMP280;14177;51.520;6.764;2024-02-15T08:12:53;101389.50;;;12.46
69785;BMP280;14177;51.520;6.764;2024-02-15T08:15:22;101391.19;;;12.47
69785;BMP280;14177;51.520;6.764;2024-02-15T08:17:50;101390.28;;;12.48
69785;BMP280;14177;51.520;6.764;2024-02-15T08:20:17;101391.97;;;12.50
69785;BMP280;14177;51.520;6.764;2024-02-15T08:22:48;101398.03;;;12.51
69785;BMP280;14177;51.520;6.764;2024-02-15T08:25:15;101398.84;;;12.53
69785;BMP280;14177;51.520;6.764;2024-02-15T08:27:47;101386.63;;;12.55
69785;BMP280;14177;51.520;6.764;2024-02-15T08:30:16;101390.13;;;12.54
69785;BMP280;14177;51.520;6.764;2024-02-15T08:32:46;101379.69;;;12.54
69785;BMP280;14177;51.520;6.764;2024-02-15T08:35:14;101385.72;;;12.56
69785;BMP280;14177;51.520;6.764;2024-02-15T08:37:41;101372.78;;;12.53
69785;BMP280;14177;51.520;6.764;2024-02-15T08:40:11;101378.88;;;12.52
69785;BMP280;14177;51.520;6.764;2024-02-15T08:42:42;101363.25;;;12.52
69785;BMP280;14177;51.520;6.764;2024-02-15T08:45:10;101366.75;;;12.51
69785;BMP280;14177;51.520;6.764;2024-02-15T08:47:42;101369.38;;;12.51
69785;BMP280;14177;51.520;6.764;2024-02-15T08:50:11;101365.94;;;12.49
69785;BMP280;14177;51.520;6.764;2024-02-15T08:52:41;101362.50;;;12.48
69785;BMP280;14177;51.520;6.764;2024-02-15T08:55:10;101363.41;;;12.47
69785;BMP280;14177;51.520;6.764;2024-02-15T08:57:37;101362.50;;;12.48
69785;BMP280;14177;51.520;6.764;2024-02-15T09:00:08;101354.69;;;12.48
69785;BMP280;14177;51.520;6.764;2024-02-15T09:02:40;101362.50;;;12.48
69785;BMP280;14177;51.520;6.764;2024-02-15T09:05:08;101357.28;;;12.48
69785;BMP280;14177;51.520;6.764;2024-02-15T09:07:36;101348.56;;;12.49
69785;BMP280;14177;51.520;6.764;2024-02-15T09:10:09;101353.72;;;12.51
69785;BMP280;14177;51.520;6.764;2024-02-15T09:12:38;101353.72;;;12.51
69785;BMP280;14177;51.520;6.764;2024-02-15T09:15:10;101353.69;;;12.52
69785;BMP280;14177;51.520;6.764;2024-02-15T09:17:41;101350.19;;;12.53
69785;BMP280;14177;51.520;6.764;2024-02-15T09:20:17;101340.50;;;12.57
69785;BMP280;14177;51.520;6.764;2024-02-15T09:22:51;101343.94;;;12.59
69785;BMP280;14177;51.520;6.764;2024-02-15T09:25:19;101339.44;;;12.64
69785;BMP280;14177;51.520;6.764;2024-02-15T09:27:46;101334.13;;;12.67
69785;BMP280;14177;51.520;6.764;2024-02-15T09:30:14;101329.72;;;12.69
69785;BMP280;14177;51.520;6.764;2024-02-15T09:32:44;101337.53;;;12.69
69785;BMP280;14177;51.520;6.764;2024-02-15T09:35:12;101338.34;;;12.71
69785;BMP280;14177;51.520;6.764;2024-02-15T09:37:47;101331.34;;;12.73
69785;BMP280;14177;51.520;6.764;2024-02-15T09:40:18;101333.03;;;12.74
69785;BMP280;14177;51.520;6.764;2024-02-15T09:42:47;101329.47;;;12.76
69785;BMP280;14177;51.520;6.764;2024-02-15T09:45:15;101330.34;;;12.77
69785;BMP280;14177;51.520;6.764;2024-02-15T09:47:44;101333.75;;;12.79
69785;BMP280;14177;51.520;6.764;2024-02-15T09:50:17;101331.88;;;12.82
69785;BMP280;14177;51.520;6.764;2024-02-15T09:52:52;101339.56;;;12.87
69785;BMP280;14177;51.520;6.764;2024-02-15T09:55:21;101336.91;;;12.88
69785;BMP280;14177;51.520;6.764;2024-02-15T09:57:51;101342.94;;;12.92
69785;BMP280;14177;51.520;6.764;2024-02-15T10:00:18;101338.53;;;12.94
69785;BMP280;14177;51.520;6.764;2024-02-15T10:02:53;101333.22;;;12.97
69785;BMP280;14177;51.520;6.764;2024-02-15T10:05:22;101342.56;;;13.02
69785;BMP280;14177;51.520;6.764;2024-02-15T10:07:50;101350.38;;;13.04
69785;BMP280;14177;51.520;6.764;2024-02-15T10:10:24;101338.94;;;13.08
69785;BMP280;14177;51.520;6.764;2024-02-15T10:12:54;101325.72;;;13.12
69785;BMP280;14177;51.520;6.764;2024-02-15T10:15:36;101333.50;;;13.14
69785;BMP280;14177;51.520;6.764;2024-02-15T10:18:09;101343.00;;;13.16
69785;BMP280;14177;51.520;6.764;2024-02-15T10:20:39;101344.63;;;13.19
69785;BMP280;14177;51.520;6.764;2024-02-15T10:25:39;101335.78;;;13.24
69785;BMP280;14177;51.520;6.764;2024-02-15T10:28:10;101340.00;;;13.28
69785;BMP280;14177;51.520;6.764;2024-02-15T10:30:42;101333.69;;;13.33
69785;BMP280;14177;51.520;6.764;2024-02-15T10:33:26;101328.25;;;13.41
69785;BMP280;14177;51.520;6.764;2024-02-15T10:36:10;101335.78;;;13.48
69785;BMP280;14177;51.520;6.764;2024-02-15T10:38:41;101333.88;;;13.53
69785;BMP280;14177;51.520;6.764;2024-02-15T10:41:09;101325.78;;;13.61
69785;BMP280;14177;51.520;6.764;2024-02-15T10:43:39;101323.75;;;13.69
69785;BMP280;14177;51.520;6.764;2024-02-15T10:46:06;101323.53;;;13.75
69785;BMP280;14177;51.520;6.764;2024-02-15T10:48:37;101324.19;;;13.81
69785;BMP280;14177;51.520;6.764;2024-02-15T10:51:10;101322.25;;;13.86
69785;BMP280;14177;51.520;6.764;2024-02-15T10:53:47;101324.72;;;13.91
69785;BMP280;14177;51.520;6.764;2024-02-15T10:56:22;101323.72;;;13.93
69785;BMP280;14177;51.520;6.764;2024-02-15T10:59:16;101326.13;;;13.99
69785;BMP280;14177;51.520;6.764;2024-02-15T11:01:46;101314.75;;;14.00
69785;BMP280;14177;51.520;6.764;2024-02-15T11:04:20;101327.59;;;14.06
69785;BMP280;14177;51.520;6.764;2024-02-15T11:06:55;101311.72;;;14.12
69785;BMP280;14177;51.520;6.764;2024-02-15T11:09:23;101310.78;;;14.15
69785;BMP280;14177;51.520;6.764;2024-02-15T11:11:50;101309.63;;;14.22
69785;BMP280;14177;51.520;6.764;2024-02-15T11:16:50;101313.38;;;14.38
69785;BMP280;14177;51.520;6.764;2024-02-15T11:19:40;101314.91;;;14.43
69785;BMP280;14177;51.520;6.764;2024-02-15T11:22:15;101313.09;;;14.45
69785;BMP280;14177;51.520;6.764;2024-02-15T11:24:52;101314.72;;;14.48
69785;BMP280;14177;51.520;6.764;2024-02-15T11:27:30;101317.31;;;14.49
69785;BMP280;14177;51.520;6.764;2024-02-15T11:30:00;101312.88;;;14.51
69785;BMP280;14177;51.520;6.764;2024-02-15T11:32:42;101307.63;;;14.51
69785;BMP280;14177;51.520;6.764;2024-02-15T11:35:27;101298.75;;;14.55
69785;BMP280;14177;51.520;6.764;2024-02-15T11:37:59;101291.69;;;14.57
69785;BMP280;14177;51.520;6.764;2024-02-15T11:43:08;101285.63;;;14.78
69785;BMP280;14177;51.520;6.764;2024-02-15T11:45:37;101287.06;;;14.85
69785;BMP280;14177;51.520;6.764;2024-02-15T11:48:12;101284.63;;;15.02
69785;BMP280;14177;51.520;6.764;2024-02-15T11:50:40;101285.09;;;15.11
69785;BMP280;14177;51.520;6.764;2024-02-15T11:53:09;101274.97;;;15.24
69785;BMP280;14177;51.520;6.764;2024-02-15T11:55:40;101271.34;;;15.28
69785;BMP280;14177;51.520;6.764;2024-02-15T11:58:09;101269.34;;;15.33
69785;BMP280;14177;51.520;6.764;2024-02-15T12:00:38;101272.63;;;15.38
69785;BMP280;14177;51.520;6.764;2024-02-15T12:03:25;101269.09;;;15.39
69785;BMP280;14177;51.520;6.764;2024-02-15T12:06:30;101264.84;;;15.36
69785;BMP280;14177;51.520;6.764;2024-02-15T12:09:22;101257.78;;;15.38
69785;BMP280;14177;51.520;6.764;2024-02-15T12:12:15;101257.66;;;15.41
69785;BMP280;14177;51.520;6.764;2024-02-15T12:15:04;101254.97;;;15.43
69785;BMP280;14177;51.520;6.764;2024-02-15T12:18:21;101248.69;;;15.47
69785;BMP280;14177;51.520;6.764;2024-02-15T12:21:51;101244.88;;;15.54
69785;BMP280;14177;51.520;6.764;2024-02-15T12:25:34;101236.88;;;15.57
69785;BMP280;14177;51.520;6.764;2024-02-15T12:28:16;101229.69;;;15.62
69785;BMP280;14177;51.520;6.764;2024-02-15T12:30:49;101227.72;;;15.67
69785;BMP280;14177;51.520;6.764;2024-02-15T12:33:23;101225.72;;;15.72
69785;BMP280;14177;51.520;6.764;2024-02-15T12:36:06;101225.47;;;15.78
69785;BMP280;14177;51.520;6.764;2024-02-15T12:38:36;101218.25;;;15.82
69785;BMP280;14177;51.520;6.764;2024-02-15T12:41:33;101221.44;;;15.89
69785;BMP280;14177;51.520;6.764;2024-02-15T12:44:19;101212.31;;;15.97
69785;BMP280;14177;51.520;6.764;2024-02-15T12:46:58;101217.25;;;16.03
69785;BMP280;14177;51.520;6.764;2024-02-15T12:49:31;101209.19;;;16.08
69785;BMP280;14177;51.520;6.764;2024-02-15T12:52:38;101215.13;;;16.11
69785;BMP280;14177;51.520;6.764;2024-02-15T12:55:18;101205.91;;;16.21
69785;BMP280;14177;51.520;6.764;2024-02-15T12:57:54;101200.22;;;16.30
69785;BMP280;14177;51.520;6.764;2024-02-15T13:00:27;101197.13;;;16.41
69785;BMP280;14177;51.520;6.764;2024-02-15T13:03:13;101191.22;;;16.54
69785;BMP280;14177;51.520;6.764;2024-02-15T13:05:45;101197.63;;;16.66
69785;BMP280;14177;51.520;6.764;2024-02-15T13:08:18;101188.47;;;16.74
69785;BMP280;14177;51.520;6.764;2024-02-15T13:10:55;101190.63;;;16.83
69785;BMP280;14177;51.520;6.764;2024-02-15T13:13:46;101188.41;;;16.93
69785;BMP280;14177;51.520;6.764;2024-02-15T13:16:15;101179.91;;;17.05
69785;BMP280;14177;51.520;6.764;2024-02-15T13:18:45;101185.38;;;17.17
69785;BMP280;14177;51.520;6.764;2024-02-15T13:21:18;101175.06;;;17.29
69785;BMP280;14177;51.520;6.764;2024-02-15T13:24:06;101166.13;;;17.33
69785;BMP280;14177;51.520;6.764;2024-02-15T13:26:44;101156.34;;;17.37
69785;BMP280;14177;51.520;6.764;2024-02-15T13:49:49;101127.47;;;17.03
69785;BMP280;14177;51.520;6.764;2024-02-15T13:52:16;101125.72;;;17.04
69785;BMP280;14177;51.520;6.764;2024-02-15T13:54:44;101122.84;;;17.08
69785;BMP280;14177;51.520;6.764;2024-02-15T13:57:11;101130.41;;;17.14
69785;BMP280;14177;51.520;6.764;2024-02-15T13:59:40;101125.44;;;17.25
69785;BMP280;14177;51.520;6.764;2024-02-15T14:02:07;101117.72;;;17.39
69785;BMP280;14177;51.520;6.764;2024-02-15T14:04:34;101117.03;;;17.51
69785;BMP280;14177;51.520;6.764;2024-02-15T14:07:02;101119.94;;;17.62
69785;BMP280;14177;51.520;6.764;2024-02-15T14:09:29;101122.06;;;17.71
69785;BMP280;14177;51.520;6.764;2024-02-15T14:11:57;101113.25;;;17.72
69785;BMP280;14177;51.520;6.764;2024-02-15T14:14:24;101109.09;;;17.68
69785;BMP280;14177;51.520;6.764;2024-02-15T14:16:52;101115.03;;;17.71
69785;BMP280;14177;51.520;6.764;2024-02-15T14:19:19;101095.88;;;17.85
69785;BMP280;14177;51.520;6.764;2024-02-15T14:21:48;101088.41;;;17.93
69785;BMP280;14177;51.520;6.764;2024-02-15T14:24:15;101086.03;;;17.88
69785;BMP280;14177;51.520;6.764;2024-02-15T14:26:43;101085.78;;;17.93
69785;BMP280;14177;51.520;6.764;2024-02-15T14:29:10;101093.06;;;18.03
69785;BMP280;14177;51.520;6.764;2024-02-15T14:31:37;101078.38;;;18.15
69785;BMP280;14177;51.520;6.764;2024-02-15T14:34:22;101079.56;;;18.25
69785;BMP280;14177;51.520;6.764;2024-02-15T14:36:52;101077.84;;;18.24
69785;BMP280;14177;51.520;6.764;2024-02-15T14:39:19;101072.97;;;18.18
69785;BMP280;14177;51.520;6.764;2024-02-15T14:41:51;101084.41;;;18.17
69785;BMP280;14177;51.520;6.764;2024-02-15T14:44:44;101077.53;;;18.30
69785;BMP280;14177;51.520;6.764;2024-02-15T14:47:12;101069.50;;;18.46
69785;BMP280;14177;51.520;6.764;2024-02-15T14:49:39;101074.06;;;18.58